createdAt,value
2022-09-20T00:01:10.791Z,7.20
2022-09-20T00:03:40.661Z,6.73
2022-09-20T00:06:12.409Z,4.75
2022-09-20T00:08:40.898Z,3.10
2022-09-20T00:11:10.645Z,5.13
2022-09-20T00:13:40.204Z,5.00
2022-09-20T00:16:09.645Z,4.55
2022-09-20T00:18:38.055Z,3.70
2022-09-20T00:21:06.761Z,5.15
2022-09-20T00:23:36.462Z,6.97
2022-09-20T00:26:06.064Z,4.65
2022-09-20T00:28:34.657Z,4.82
2022-09-20T00:31:02.921Z,1.73
2022-09-20T00:33:44.704Z,4.78
2022-09-20T00:36:12.622Z,3.65
2022-09-20T00:38:41.882Z,5.40
2022-09-20T00:41:10.214Z,3.83
2022-09-20T00:43:39.881Z,5.70
2022-09-20T00:46:16.057Z,4.28
2022-09-20T00:48:44.365Z,7.90
2022-09-20T00:51:18.869Z,6.45
2022-09-20T00:53:51.182Z,8.25
2022-09-20T00:56:23.297Z,6.80
2022-09-20T00:58:55.631Z,5.72
2022-09-20T01:01:23.746Z,3.90
2022-09-20T01:03:51.758Z,3.95
2022-09-20T01:06:20.334Z,8.18
2022-09-20T01:08:52.722Z,3.35
2022-09-20T01:11:20.760Z,3.28
2022-09-20T01:13:48.673Z,3.78
2022-09-20T01:16:17.670Z,3.75
2022-09-20T01:18:46.862Z,5.80
2022-09-20T01:21:15.651Z,4.22
2022-09-20T01:23:53.180Z,6.78
2022-09-20T01:26:50.761Z,4.00
2022-09-20T01:29:38.439Z,5.07
2022-09-20T01:32:13.214Z,5.10
2022-09-20T01:34:48.209Z,6.93
2022-09-20T01:37:23.547Z,4.82
2022-09-20T01:39:58.987Z,6.90
2022-09-20T01:42:33.413Z,4.75
2022-09-20T01:45:09.768Z,4.75
2022-09-20T01:47:45.369Z,5.30
2022-09-20T01:50:22.689Z,5.00
2022-09-20T01:53:15.378Z,3.92
2022-09-20T01:56:17.149Z,4.95
2022-09-20T01:59:23.831Z,3.50
2022-09-20T02:02:14.608Z,2.15
2022-09-20T02:05:28.311Z,5.38
2022-09-20T02:08:19.471Z,5.45
2022-09-20T02:11:10.714Z,6.13
2022-09-20T02:13:58.685Z,2.10
2022-09-20T02:16:45.789Z,6.22
2022-09-20T02:19:40.617Z,4.20
2022-09-20T02:22:23.871Z,3.33
2022-09-20T02:24:59.270Z,4.07
2022-09-20T02:27:36.272Z,6.20
2022-09-20T02:30:26.264Z,4.95
2022-09-20T02:33:13.894Z,3.27
2022-09-20T02:35:55.783Z,3.63
2022-09-20T02:38:38.708Z,3.50
2022-09-20T02:41:37.112Z,1.92
2022-09-20T02:44:13.604Z,3.00
2022-09-20T02:46:51.973Z,7.38
2022-09-20T02:49:29.670Z,4.55
2022-09-20T02:52:04.186Z,3.60
2022-09-20T02:54:40.563Z,3.28
2022-09-20T02:57:20.552Z,2.78
2022-09-20T02:59:55.077Z,9.10
2022-09-20T03:02:27.876Z,4.55
2022-09-20T03:05:09.664Z,3.38
2022-09-20T03:07:50.719Z,4.63
2022-09-20T03:10:26.377Z,5.15
2022-09-20T03:13:07.556Z,3.63
2022-09-20T03:15:50.160Z,1.93
2022-09-20T03:18:20.737Z,3.03
2022-09-20T03:20:58.971Z,5.07
2022-09-20T03:23:43.256Z,4.57
2022-09-20T03:26:25.639Z,4.40
2022-09-20T03:29:02.092Z,2.90
2022-09-20T03:31:40.010Z,7.75
2022-09-20T03:34:19.723Z,3.80
2022-09-20T03:37:02.645Z,3.92
2022-09-20T03:39:47.033Z,3.88
2022-09-20T03:42:19.049Z,3.33
2022-09-20T03:45:13.145Z,6.10
2022-09-20T03:48:09.194Z,2.10
2022-09-20T03:50:51.925Z,7.55
2022-09-20T03:53:40.722Z,5.85
2022-09-20T03:56:27.681Z,3.63
2022-09-20T03:59:24.148Z,6.07
2022-09-20T04:02:10.207Z,2.20
2022-09-20T04:04:46.761Z,6.40
2022-09-20T04:07:19.563Z,5.05
2022-09-20T04:10:07.840Z,3.15
2022-09-20T04:12:45.884Z,5.75
2022-09-20T04:15:28.079Z,2.77
2022-09-20T04:18:02.244Z,5.97
2022-09-20T04:20:38.647Z,2.67
2022-09-20T04:23:19.321Z,5.10
2022-09-20T04:25:49.654Z,4.00
2022-09-20T04:28:23.453Z,4.53
2022-09-20T04:30:56.696Z,4.53
2022-09-20T04:33:29.347Z,2.22
2022-09-20T04:36:28.321Z,2.50
2022-09-20T04:39:03.517Z,4.00
2022-09-20T04:42:27.989Z,6.60
2022-09-20T04:45:41.686Z,5.67
2022-09-20T04:48:42.288Z,8.13
2022-09-20T04:51:46.724Z,6.55
2022-09-20T04:54:45.182Z,4.90
2022-09-20T04:57:40.295Z,6.47
2022-09-20T05:00:11.104Z,4.80
2022-09-20T05:03:11.852Z,7.32
2022-09-20T05:06:23.581Z,5.85
2022-09-20T05:09:33.372Z,5.35
2022-09-20T05:12:27.213Z,5.53
2022-09-20T05:15:12.392Z,3.57
2022-09-20T05:17:57.937Z,4.60
2022-09-20T05:20:50.250Z,4.05
2022-09-20T05:23:47.628Z,4.43
2022-09-20T05:26:24.815Z,5.68
2022-09-20T05:28:58.036Z,5.63
2022-09-20T05:31:40.397Z,4.85
2022-09-20T05:34:18.126Z,3.95
2022-09-20T05:36:58.381Z,2.40
2022-09-20T05:39:35.571Z,4.32
2022-09-20T05:42:15.774Z,4.15
2022-09-20T05:44:56.737Z,5.97
2022-09-20T05:47:35.879Z,3.10
2022-09-20T05:50:20.171Z,4.50
2022-09-20T05:52:57.882Z,4.82
2022-09-20T05:55:50.059Z,5.53
2022-09-20T05:58:39.743Z,5.50
2022-09-20T06:01:13.783Z,4.35
2022-09-20T06:03:45.545Z,4.70
2022-09-20T06:06:21.635Z,3.45
2022-09-20T06:09:17.001Z,4.68
2022-09-20T06:12:17.898Z,3.60
2022-09-20T06:14:53.097Z,3.83
2022-09-20T06:17:28.454Z,6.88
2022-09-20T06:20:12.281Z,7.13
2022-09-20T06:22:43.833Z,3.83
2022-09-20T06:25:20.230Z,4.00
2022-09-20T06:27:52.810Z,3.08
2022-09-20T06:30:25.653Z,4.50
2022-09-20T06:32:57.873Z,3.80
2022-09-20T06:35:30.744Z,4.25
2022-09-20T06:38:30.486Z,3.20
2022-09-20T06:41:17.437Z,3.70
2022-09-20T06:43:45.560Z,4.65
2022-09-20T06:46:15.571Z,3.00
2022-09-20T06:48:43.481Z,5.65
2022-09-20T06:51:12.460Z,4.00
2022-09-20T06:53:42.407Z,6.68
2022-09-20T06:56:17.694Z,4.20
2022-09-20T06:58:45.649Z,5.57
2022-09-20T07:01:14.250Z,4.97
2022-09-20T07:03:42.685Z,5.80
2022-09-20T07:06:11.334Z,3.85
2022-09-20T07:08:39.626Z,4.87
2022-09-20T07:11:09.052Z,4.38
2022-09-20T07:13:38.416Z,5.30
2022-09-20T07:16:08.422Z,5.25
2022-09-20T07:18:36.505Z,2.03
2022-09-20T07:21:05.140Z,3.40
2022-09-20T07:23:33.161Z,3.80
2022-09-20T07:26:01.399Z,3.33
2022-09-20T07:28:29.653Z,5.80
2022-09-20T07:30:59.112Z,4.78
2022-09-20T07:33:27.026Z,5.00
2022-09-20T07:35:56.372Z,3.70
2022-09-20T07:38:24.339Z,3.33
2022-09-20T07:40:57.375Z,3.92
2022-09-20T07:43:25.589Z,3.92
2022-09-20T07:45:56.046Z,2.70
2022-09-20T07:48:27.344Z,5.22
2022-09-20T07:50:56.837Z,1.90
2022-09-20T07:53:25.121Z,2.95
2022-09-20T07:56:00.506Z,5.00
2022-09-20T07:58:28.919Z,7.53
2022-09-20T08:00:58.427Z,4.15
2022-09-20T08:03:28.553Z,3.22
2022-09-20T08:06:01.269Z,3.20
2022-09-20T08:08:29.991Z,4.90
2022-09-20T08:11:06.407Z,2.80
2022-09-20T08:16:25.192Z,3.90
2022-09-20T08:18:57.250Z,3.33
2022-09-20T08:21:25.957Z,4.40
2022-09-20T08:23:54.543Z,4.30
2022-09-20T08:26:24.650Z,3.83
2022-09-20T08:28:54.121Z,3.20
2022-09-20T08:31:24.282Z,6.00
2022-09-20T08:33:54.429Z,4.10
2022-09-20T08:36:23.956Z,6.13
2022-09-20T08:41:46.007Z,3.08
2022-09-20T08:44:18.423Z,6.57
2022-09-20T08:46:49.928Z,5.07
2022-09-20T08:49:26.479Z,3.40
2022-09-20T08:51:57.982Z,3.30
2022-09-20T08:54:31.854Z,5.18
2022-09-20T08:57:05.199Z,4.20
2022-09-20T08:59:33.749Z,4.95
2022-09-20T09:02:01.751Z,3.57
2022-09-20T09:04:36.675Z,6.13
2022-09-20T09:07:06.617Z,4.40
2022-09-20T09:09:41.178Z,4.65
2022-09-20T09:12:18.772Z,5.40
2022-09-20T09:14:49.300Z,3.72
2022-09-20T09:17:19.084Z,8.10
2022-09-20T09:19:51.237Z,10.40
2022-09-20T09:22:21.843Z,3.40
2022-09-20T09:25:20.190Z,2.83
2022-09-20T09:27:53.257Z,4.60
2022-09-20T09:30:23.907Z,3.13
2022-09-20T09:32:51.899Z,7.90
2022-09-20T09:35:31.505Z,4.77
2022-09-20T09:38:01.198Z,3.00
2022-09-20T09:40:31.640Z,3.97
2022-09-20T09:43:01.418Z,4.03
2022-09-20T09:45:33.247Z,3.70
2022-09-20T09:48:02.267Z,6.22
2022-09-20T09:50:35.446Z,4.07
2022-09-20T09:53:12.036Z,8.70
2022-09-20T09:55:55.166Z,2.90
2022-09-20T09:58:32.616Z,4.73
2022-09-20T10:01:05.439Z,5.57
2022-09-20T10:03:52.865Z,6.55
2022-09-20T10:06:28.173Z,6.20
2022-09-20T10:09:06.740Z,6.88
2022-09-20T10:11:48.994Z,3.40
2022-09-20T10:14:30.328Z,3.85
2022-09-20T10:17:16.025Z,6.80
2022-09-20T10:20:04.766Z,6.47
2022-09-20T10:23:06.813Z,4.50
2022-09-20T10:25:43.154Z,2.20
2022-09-20T10:28:23.904Z,2.90
2022-09-20T10:31:03.955Z,3.40
2022-09-20T10:33:40.285Z,3.42
2022-09-20T10:36:24.118Z,3.15
2022-09-20T10:39:01.031Z,5.63
2022-09-20T10:42:03.246Z,5.60
2022-09-20T10:44:46.353Z,2.75
2022-09-20T10:47:18.107Z,1.70
2022-09-20T10:49:57.256Z,2.65
2022-09-20T10:52:59.911Z,2.58
2022-09-20T10:55:35.891Z,3.47
2022-09-20T10:58:28.380Z,7.47
2022-09-20T11:01:03.949Z,4.13
2022-09-20T11:03:47.528Z,2.00
2022-09-20T11:06:19.631Z,4.87
2022-09-20T11:08:51.640Z,1.10
2022-09-20T11:11:24.660Z,1.85
2022-09-20T11:14:02.678Z,3.10
2022-09-20T11:16:37.000Z,2.50
2022-09-20T11:19:14.073Z,3.30
2022-09-20T11:21:48.053Z,3.40
2022-09-20T11:24:27.959Z,3.42
2022-09-20T11:27:00.080Z,4.00
2022-09-20T11:29:34.343Z,2.72
2022-09-20T11:32:08.864Z,4.55
2022-09-20T11:34:43.921Z,3.30
2022-09-20T11:37:11.927Z,2.65
2022-09-20T11:39:46.285Z,2.20
2022-09-20T11:42:19.091Z,2.33
2022-09-20T11:44:47.590Z,5.40
2022-09-20T11:47:42.958Z,4.57
2022-09-20T11:50:41.157Z,2.95
2022-09-20T11:53:21.580Z,2.00
2022-09-20T11:55:53.713Z,3.25
2022-09-20T11:58:23.244Z,3.30
2022-09-20T12:00:55.045Z,4.05
2022-09-20T12:03:31.685Z,1.60
2022-09-20T12:06:02.049Z,2.87
2022-09-20T12:08:33.382Z,5.83
2022-09-20T12:11:04.356Z,2.53
2022-09-20T12:13:37.564Z,2.63
2022-09-20T12:16:08.026Z,3.75
2022-09-20T12:18:48.781Z,2.72
2022-09-20T12:21:18.764Z,7.00
2022-09-20T12:24:22.371Z,2.75
2022-09-20T12:26:52.822Z,6.23
2022-09-20T12:30:06.476Z,3.65
2022-09-20T12:32:57.346Z,4.93
2022-09-20T12:36:16.254Z,4.07
2022-09-20T12:38:51.392Z,3.75
2022-09-20T12:41:28.162Z,2.70
2022-09-20T12:44:07.565Z,3.40
2022-09-20T12:46:51.260Z,5.72
2022-09-20T12:49:52.551Z,2.53
2022-09-20T12:52:53.730Z,5.40
2022-09-20T12:55:32.862Z,4.35
2022-09-20T12:58:03.723Z,4.45
2022-09-20T13:00:38.986Z,4.25
2022-09-20T13:03:25.586Z,2.55
2022-09-20T13:06:24.168Z,4.85
2022-09-20T13:09:02.677Z,5.25
2022-09-20T13:11:34.921Z,3.47
2022-09-20T13:14:07.236Z,4.22
2022-09-20T13:16:47.236Z,5.00
2022-09-20T13:19:20.399Z,4.38
2022-09-20T13:21:56.090Z,3.13
2022-09-20T13:24:26.827Z,2.50
2022-09-20T13:27:01.818Z,4.40
2022-09-20T13:29:34.204Z,4.47
2022-09-20T13:32:16.808Z,4.80
2022-09-20T13:34:46.614Z,4.00
2022-09-20T13:37:21.071Z,3.88
2022-09-20T13:39:53.970Z,2.30
2022-09-20T13:42:22.461Z,4.55
2022-09-20T13:44:50.701Z,3.00
2022-09-20T13:47:27.574Z,4.55
2022-09-20T13:50:03.148Z,3.58
2022-09-20T13:52:32.761Z,2.10
2022-09-20T13:55:01.038Z,4.60
2022-09-20T13:57:31.009Z,5.05
2022-09-20T14:00:01.597Z,1.65
2022-09-20T14:02:32.695Z,4.53
2022-09-20T14:05:05.255Z,1.95
2022-09-20T14:07:36.418Z,2.28
2022-09-20T14:10:05.192Z,2.70
2022-09-20T14:12:34.584Z,2.50
2022-09-20T14:15:06.729Z,3.05
2022-09-20T14:17:36.651Z,3.05
2022-09-20T14:20:07.273Z,3.80
2022-09-20T14:22:35.319Z,3.50
2022-09-20T14:25:19.622Z,3.00
2022-09-20T14:27:47.500Z,1.63
2022-09-20T14:30:32.984Z,1.40
2022-09-20T14:33:01.121Z,2.88
2022-09-20T14:35:30.988Z,4.43
2022-09-20T14:38:01.796Z,4.90
2022-09-20T14:40:31.342Z,2.83
2022-09-20T14:43:00.629Z,2.45
2022-09-20T14:45:32.036Z,4.17
2022-09-20T14:48:09.593Z,2.78
2022-09-20T14:50:42.116Z,2.10
2022-09-20T14:53:29.582Z,1.52
2022-09-20T14:56:01.589Z,1.42
2022-09-20T14:58:29.607Z,4.63
2022-09-20T15:01:01.657Z,1.60
2022-09-20T15:03:32.083Z,2.88
2022-09-20T15:06:01.320Z,1.63
2022-09-20T15:08:29.348Z,2.40
2022-09-20T15:10:57.272Z,4.67
2022-09-20T15:13:25.204Z,1.73
2022-09-20T15:15:54.782Z,1.70
2022-09-20T15:18:25.528Z,4.88
2022-09-20T15:20:54.829Z,5.88
2022-09-20T15:23:24.249Z,2.00
2022-09-20T15:25:53.900Z,2.38
2022-09-20T15:28:22.516Z,4.77
2022-09-20T15:30:52.302Z,2.53
2022-09-20T15:33:21.055Z,3.10
2022-09-20T15:35:49.616Z,3.60
2022-09-20T15:38:18.567Z,3.33
2022-09-20T15:40:49.154Z,3.03
2022-09-20T15:43:19.565Z,3.80
2022-09-20T15:45:50.484Z,3.63
2022-09-20T15:48:20.784Z,5.07
2022-09-20T15:51:02.856Z,3.03
2022-09-20T15:53:34.183Z,2.20
2022-09-20T15:56:05.723Z,4.75
2022-09-20T15:58:36.471Z,2.70
2022-09-20T16:01:06.361Z,2.47
2022-09-20T16:03:36.492Z,6.13
2022-09-20T16:06:06.573Z,1.40
2022-09-20T16:08:34.782Z,3.25
2022-09-20T16:11:04.885Z,1.48
2022-09-20T16:13:33.331Z,2.78
2022-09-20T16:16:02.318Z,2.53
2022-09-20T16:18:48.767Z,5.78
2022-09-20T16:21:18.412Z,2.72
2022-09-20T16:23:48.962Z,4.10
2022-09-20T16:26:19.678Z,4.63
2022-09-20T16:28:49.114Z,3.23
2022-09-20T16:31:34.751Z,4.90
2022-09-20T16:34:04.170Z,7.00
2022-09-20T16:36:32.338Z,6.57
2022-09-20T16:39:01.095Z,5.38
2022-09-20T16:41:32.439Z,6.15
2022-09-20T16:44:00.342Z,4.25
2022-09-20T16:46:28.276Z,2.83
2022-09-20T16:48:57.005Z,6.93
2022-09-20T16:51:26.514Z,3.90
2022-09-20T16:53:55.681Z,6.15
2022-09-20T16:56:25.215Z,4.20
2022-09-20T16:58:55.221Z,3.92
2022-09-20T17:01:23.670Z,3.28
2022-09-20T17:03:51.773Z,4.68
2022-09-20T17:06:20.068Z,8.55
2022-09-20T17:08:48.632Z,3.17
2022-09-20T17:11:21.537Z,3.60
2022-09-20T17:13:51.330Z,5.00
2022-09-20T17:16:22.684Z,9.82
2022-09-20T17:18:54.303Z,4.07
2022-09-20T17:21:22.997Z,4.05
2022-09-20T17:23:56.164Z,6.50
2022-09-20T17:26:26.213Z,6.80
2022-09-20T17:28:56.441Z,2.63
2022-09-20T17:31:28.725Z,3.25
2022-09-20T17:34:00.024Z,4.90
2022-09-20T17:36:29.362Z,4.90
2022-09-20T17:39:03.626Z,5.40
2022-09-20T17:41:33.688Z,7.93
2022-09-20T17:44:07.885Z,4.28
2022-09-20T17:46:38.374Z,6.65
2022-09-20T17:49:08.311Z,3.95
2022-09-20T17:51:37.805Z,3.30
2022-09-20T17:54:06.641Z,1.90
2022-09-20T17:56:35.778Z,3.95
2022-09-20T17:59:05.478Z,5.72
2022-09-20T18:01:38.805Z,5.20
2022-09-20T18:04:07.813Z,5.30
2022-09-20T18:06:37.537Z,7.20
2022-09-20T18:09:07.820Z,5.93
2022-09-20T18:11:37.847Z,5.50
2022-09-20T18:14:07.556Z,4.88
2022-09-20T18:16:37.411Z,4.20
2022-09-20T18:19:07.534Z,4.88
2022-09-20T18:21:36.661Z,5.30
2022-09-20T18:24:06.981Z,3.80
2022-09-20T18:26:35.524Z,5.60
2022-09-20T18:29:05.555Z,9.13
2022-09-20T18:31:36.055Z,5.45
2022-09-20T18:34:07.675Z,4.10
2022-09-20T18:36:38.394Z,5.47
2022-09-20T18:39:08.309Z,4.13
2022-09-20T18:41:37.893Z,7.47
2022-09-20T18:44:07.621Z,4.30
2022-09-20T18:46:38.133Z,3.65
2022-09-20T18:49:09.389Z,4.55
2022-09-20T18:51:40.173Z,8.23
2022-09-20T18:54:10.598Z,6.00
2022-09-20T18:56:40.272Z,4.05
2022-09-20T18:59:09.641Z,5.77
2022-09-20T19:02:00.630Z,5.07
2022-09-20T19:04:42.072Z,2.97
2022-09-20T19:07:17.044Z,5.93
2022-09-20T19:09:50.497Z,3.90
2022-09-20T19:12:26.847Z,5.53
2022-09-20T19:15:16.612Z,5.53
2022-09-20T19:18:01.954Z,2.20
2022-09-20T19:20:38.267Z,4.32
2022-09-20T19:23:25.290Z,3.60
2022-09-20T19:26:06.598Z,2.25
2022-09-20T19:28:35.029Z,5.55
2022-09-20T19:31:03.471Z,2.20
2022-09-20T19:33:31.892Z,4.55
2022-09-20T19:36:03.133Z,3.10
2022-09-20T19:38:38.379Z,4.10
2022-09-20T19:41:27.323Z,4.25
2022-09-20T19:44:21.927Z,3.00
2022-09-20T19:47:06.084Z,4.97
2022-09-20T19:49:46.721Z,5.77
2022-09-20T19:52:16.752Z,6.05
2022-09-20T19:54:46.725Z,6.32
2022-09-20T19:57:21.402Z,4.78
2022-09-20T19:59:50.924Z,6.55
2022-09-20T20:02:19.420Z,2.63
2022-09-20T20:04:47.734Z,4.60
2022-09-20T20:07:27.712Z,12.27
2022-09-20T20:10:02.350Z,27.50
2022-09-20T20:12:35.178Z,34.13
2022-09-20T20:15:16.119Z,33.30
2022-09-20T20:17:51.424Z,38.20
2022-09-20T20:20:27.562Z,38.28
2022-09-20T20:23:34.933Z,45.22
2022-09-20T20:26:09.734Z,42.08
2022-09-20T20:28:38.041Z,35.35
2022-09-20T20:31:12.205Z,28.27
2022-09-20T20:33:40.832Z,24.40
2022-09-20T20:36:11.192Z,19.48
2022-09-20T20:38:40.505Z,19.00
2022-09-20T20:41:12.805Z,19.13
2022-09-20T20:43:42.568Z,23.70
2022-09-20T20:46:12.261Z,16.88
2022-09-20T20:48:40.206Z,12.83
2022-09-20T20:51:09.809Z,13.82
2022-09-20T20:53:39.644Z,9.88
2022-09-20T20:56:12.168Z,10.57
2022-09-20T20:58:42.076Z,8.90
2022-09-20T21:01:12.183Z,8.60
2022-09-20T21:03:41.649Z,9.20
2022-09-20T21:06:10.604Z,8.23
2022-09-20T21:08:40.555Z,10.63
2022-09-20T21:11:11.682Z,7.38
2022-09-20T21:13:39.891Z,6.55
2022-09-20T21:16:10.152Z,6.43
2022-09-20T21:18:38.981Z,8.30
2022-09-20T21:21:15.577Z,6.93
2022-09-20T21:23:45.724Z,6.47
2022-09-20T21:26:16.231Z,5.30
2022-09-20T21:28:48.693Z,4.70
2022-09-20T21:31:16.637Z,6.43
2022-09-20T21:33:44.962Z,7.57
2022-09-20T21:36:14.834Z,6.45
2022-09-20T21:38:43.617Z,3.42
2022-09-20T21:41:12.890Z,7.57
2022-09-20T21:43:43.768Z,4.90
2022-09-20T21:46:12.794Z,4.10
2022-09-20T21:48:41.311Z,4.18
2022-09-20T21:51:11.342Z,3.75
2022-09-20T21:53:39.663Z,4.38
2022-09-20T21:56:09.508Z,6.72
2022-09-20T21:58:39.959Z,3.80
2022-09-20T22:01:11.557Z,5.47
2022-09-20T22:03:41.108Z,4.47
2022-09-20T22:06:11.382Z,3.78
2022-09-20T22:08:40.796Z,6.15
2022-09-20T22:11:13.455Z,4.60
2022-09-20T22:13:43.541Z,2.67
2022-09-20T22:16:16.303Z,5.20
2022-09-20T22:18:46.077Z,3.88
2022-09-20T22:21:16.148Z,3.95
2022-09-20T22:23:44.721Z,4.38
2022-09-20T22:26:17.580Z,3.70
2022-09-20T22:28:45.923Z,3.50
2022-09-20T22:31:16.937Z,4.95
2022-09-20T22:33:46.965Z,6.75
2022-09-20T22:36:18.768Z,5.47
2022-09-20T22:38:47.247Z,4.70
2022-09-20T22:41:18.132Z,5.70
2022-09-20T22:43:46.525Z,4.00
2022-09-20T22:46:18.412Z,3.47
2022-09-20T22:48:46.850Z,3.83
2022-09-20T22:51:16.679Z,4.78
2022-09-20T22:53:45.545Z,4.90
2022-09-20T22:56:15.213Z,3.53
2022-09-20T22:58:44.699Z,5.07
2022-09-20T23:01:16.133Z,3.58
2022-09-20T23:03:45.865Z,5.32
2022-09-20T23:06:15.720Z,5.50
2022-09-20T23:08:44.245Z,5.40
2022-09-20T23:11:12.484Z,5.55
2022-09-20T23:13:40.770Z,6.88
2022-09-20T23:16:13.644Z,6.47
2022-09-20T23:18:43.596Z,5.18
2022-09-20T23:21:11.756Z,5.40
2022-09-20T23:23:41.681Z,4.55
2022-09-20T23:26:11.996Z,5.25
2022-09-20T23:28:42.127Z,6.15
2022-09-20T23:31:12.701Z,4.00
2022-09-20T23:33:47.023Z,3.90
2022-09-20T23:36:16.135Z,6.68
2022-09-20T23:38:44.654Z,4.80
2022-09-20T23:41:14.981Z,4.30
2022-09-20T23:43:44.079Z,3.58
2022-09-20T23:46:13.817Z,4.97
2022-09-20T23:48:43.741Z,3.67
2022-09-20T23:51:13.457Z,5.28
2022-09-20T23:53:41.933Z,5.40
2022-09-20T23:56:11.501Z,4.00
2022-09-20T23:58:41.281Z,3.80
